createdAt,value
2023-02-15T00:00:30.894Z,71.07
2023-02-15T00:03:01.122Z,69.88
2023-02-15T00:05:32.553Z,71.35
2023-02-15T00:08:00.369Z,74.90
2023-02-15T00:10:27.965Z,81.95
2023-02-15T00:12:55.423Z,77.22
2023-02-15T00:15:27.065Z,75.68
2023-02-15T00:17:59.943Z,74.50
2023-02-15T00:20:28.060Z,71.40
2023-02-15T00:23:00.228Z,74.90
2023-02-15T00:25:28.247Z,68.65
2023-02-15T00:27:55.707Z,71.50
2023-02-15T00:30:26.276Z,65.68
2023-02-15T00:32:54.037Z,69.20
2023-02-15T00:35:24.904Z,67.97
2023-02-15T00:37:53.895Z,69.47
2023-02-15T00:40:21.377Z,71.32
2023-02-15T00:42:50.036Z,73.70
2023-02-15T00:45:17.661Z,67.15
2023-02-15T00:47:46.459Z,63.72
2023-02-15T00:50:13.933Z,68.82
2023-02-15T00:52:41.969Z,61.35
2023-02-15T00:55:09.564Z,68.20
2023-02-15T00:57:37.100Z,67.60
2023-02-15T01:00:04.822Z,66.72
2023-02-15T01:02:32.357Z,69.88
2023-02-15T01:05:02.601Z,64.55
2023-02-15T01:07:31.052Z,64.00
2023-02-15T01:10:00.342Z,66.35
2023-02-15T01:12:28.036Z,66.90
2023-02-15T01:14:55.516Z,63.70
2023-02-15T01:17:27.399Z,67.82
2023-02-15T01:19:54.859Z,58.45
2023-02-15T01:22:27.913Z,61.72
2023-02-15T01:24:55.768Z,64.45
2023-02-15T01:27:23.620Z,66.82
2023-02-15T01:29:51.256Z,63.78
2023-02-15T01:32:18.766Z,67.60
2023-02-15T01:34:48.558Z,68.88
2023-02-15T01:37:16.031Z,64.70
2023-02-15T01:39:43.523Z,69.80
2023-02-15T01:42:12.438Z,60.60
2023-02-15T01:44:53.471Z,63.22
2023-02-15T01:47:43.953Z,75.63
2023-02-15T01:50:31.249Z,64.72
2023-02-15T01:53:13.950Z,56.05
2023-02-15T01:55:47.102Z,62.90
2023-02-15T01:58:17.598Z,55.38
2023-02-15T02:00:46.865Z,56.58
2023-02-15T02:03:17.466Z,67.53
2023-02-15T02:05:45.133Z,60.28
2023-02-15T02:08:17.276Z,64.20
2023-02-15T02:10:46.280Z,61.83
2023-02-15T02:13:15.558Z,59.30
2023-02-15T02:16:12.712Z,61.97
2023-02-15T02:18:49.896Z,59.53
2023-02-15T02:21:54.651Z,62.92
2023-02-15T02:24:50.778Z,62.42
2023-02-15T02:27:30.860Z,52.53
2023-02-15T02:30:13.645Z,62.80
2023-02-15T02:32:54.346Z,65.55
2023-02-15T02:35:51.284Z,59.50
2023-02-15T02:38:35.192Z,61.97
2023-02-15T02:41:21.130Z,66.55
2023-02-15T02:44:16.142Z,62.97
2023-02-15T02:47:06.182Z,60.53
2023-02-15T02:49:42.628Z,58.47
2023-02-15T02:52:37.380Z,64.63
2023-02-15T02:55:27.294Z,62.78
2023-02-15T02:58:04.456Z,66.07
2023-02-15T03:00:37.667Z,56.80
2023-02-15T03:03:16.090Z,57.65
2023-02-15T03:05:50.584Z,60.78
2023-02-15T03:08:23.233Z,58.30
2023-02-15T03:10:55.107Z,63.15
2023-02-15T03:13:24.018Z,62.88
2023-02-15T03:16:11.960Z,58.17
2023-02-15T03:18:58.955Z,60.90
2023-02-15T03:21:41.494Z,62.78
2023-02-15T03:24:16.458Z,65.88
2023-02-15T03:26:48.310Z,63.55
2023-02-15T03:29:18.038Z,63.72
2023-02-15T03:31:49.958Z,64.57
2023-02-15T03:34:21.328Z,69.63
2023-02-15T03:37:12.545Z,74.15
2023-02-15T03:40:00.426Z,64.72
2023-02-15T03:42:34.928Z,63.28
2023-02-15T03:45:10.581Z,61.58
2023-02-15T03:47:43.918Z,64.85
2023-02-15T03:50:44.964Z,75.72
2023-02-15T03:53:17.410Z,72.65
2023-02-15T03:55:48.521Z,67.60
2023-02-15T03:58:34.534Z,71.47
2023-02-15T04:01:30.082Z,73.97
2023-02-15T04:04:04.187Z,72.65
2023-02-15T04:06:35.274Z,67.05
2023-02-15T04:09:21.077Z,65.38
2023-02-15T04:11:48.563Z,67.45
2023-02-15T04:14:37.553Z,69.82
2023-02-15T04:17:11.696Z,68.82
2023-02-15T04:19:58.090Z,70.53
2023-02-15T04:22:48.030Z,63.72
2023-02-15T04:25:16.886Z,71.53
2023-02-15T04:27:51.312Z,71.80
2023-02-15T04:30:22.671Z,62.28
2023-02-15T04:32:50.472Z,70.32
2023-02-15T04:35:18.780Z,64.80
2023-02-15T04:37:46.643Z,69.53
2023-02-15T04:40:18.718Z,70.80
2023-02-15T04:42:50.175Z,73.22
2023-02-15T04:45:19.069Z,71.50
2023-02-15T04:47:46.651Z,71.63
2023-02-15T04:50:14.122Z,73.95
2023-02-15T04:52:41.561Z,73.95
2023-02-15T04:55:10.053Z,75.82
2023-02-15T04:57:38.049Z,70.05
2023-02-15T05:00:06.056Z,78.20
2023-02-15T05:02:36.645Z,73.20
2023-02-15T05:05:07.303Z,75.10
2023-02-15T05:07:34.839Z,65.28
2023-02-15T05:10:02.779Z,76.15
2023-02-15T05:12:34.197Z,76.93
2023-02-15T05:15:05.316Z,72.65
2023-02-15T05:17:32.845Z,72.72
2023-02-15T05:20:06.617Z,70.13
2023-02-15T05:22:34.065Z,72.15
2023-02-15T05:25:20.217Z,74.05
2023-02-15T05:28:09.750Z,80.43
2023-02-15T05:30:37.625Z,73.32
2023-02-15T05:33:05.262Z,77.38
2023-02-15T05:35:36.222Z,72.70
2023-02-15T05:38:03.766Z,72.70
2023-02-15T05:40:31.837Z,74.70
2023-02-15T05:43:02.847Z,72.72
2023-02-15T05:45:30.387Z,68.80
2023-02-15T05:47:59.471Z,64.22
2023-02-15T05:50:27.392Z,71.97
2023-02-15T05:52:55.344Z,75.28
2023-02-15T05:55:22.935Z,71.00
2023-02-15T05:57:50.809Z,72.53
2023-02-15T06:00:18.762Z,81.80
2023-02-15T06:02:46.278Z,82.35
2023-02-15T06:05:13.863Z,73.82
2023-02-15T06:07:46.054Z,71.85
2023-02-15T06:10:13.548Z,87.97
2023-02-15T06:12:40.988Z,80.18
2023-02-15T06:15:08.810Z,75.75
2023-02-15T06:17:36.835Z,71.03
2023-02-15T06:20:07.847Z,81.93
2023-02-15T06:22:35.708Z,81.70
2023-02-15T06:25:03.601Z,80.70
2023-02-15T06:27:34.107Z,82.55
2023-02-15T06:30:02.449Z,84.93
2023-02-15T06:32:29.955Z,91.60
2023-02-15T06:34:57.435Z,86.68
2023-02-15T06:37:24.855Z,75.43
2023-02-15T06:39:52.334Z,75.05
2023-02-15T06:42:20.104Z,87.43
2023-02-15T06:44:47.576Z,85.55
2023-02-15T06:47:18.182Z,85.55
2023-02-15T06:49:49.762Z,88.78
2023-02-15T06:52:17.613Z,89.05
2023-02-15T06:54:45.164Z,88.07
2023-02-15T06:57:12.636Z,87.63
2023-02-15T06:59:45.452Z,81.85
2023-02-15T07:02:16.646Z,79.70
2023-02-15T07:04:44.344Z,83.88
2023-02-15T07:07:12.896Z,77.90
2023-02-15T07:09:42.862Z,76.18
2023-02-15T07:12:33.418Z,77.70
2023-02-15T07:15:01.468Z,84.45
2023-02-15T07:17:35.839Z,71.40
2023-02-15T07:20:24.189Z,74.85
2023-02-15T07:22:58.137Z,79.18
2023-02-15T07:25:26.434Z,72.95
2023-02-15T07:28:04.010Z,79.40
2023-02-15T07:30:37.004Z,88.95
2023-02-15T07:33:23.284Z,93.80
2023-02-15T07:35:56.236Z,77.70
2023-02-15T07:38:24.253Z,70.82
2023-02-15T07:40:55.289Z,82.30
2023-02-15T07:43:23.253Z,85.43
2023-02-15T07:45:50.780Z,80.10
2023-02-15T07:48:18.707Z,76.93
2023-02-15T07:50:52.296Z,74.68
2023-02-15T07:53:26.309Z,73.88
2023-02-15T07:56:16.262Z,83.05
2023-02-15T07:58:55.932Z,80.32
2023-02-15T08:01:32.423Z,93.28
2023-02-15T08:04:04.444Z,79.65
2023-02-15T08:06:37.397Z,92.80
2023-02-15T08:09:09.158Z,84.05
2023-02-15T08:11:40.932Z,80.97
2023-02-15T08:14:23.166Z,86.07
2023-02-15T08:17:16.148Z,81.80
2023-02-15T08:19:59.709Z,92.10
2023-02-15T08:28:35.585Z,97.75
2023-02-15T08:31:16.891Z,99.07
2023-02-15T08:34:20.647Z,92.38
2023-02-15T08:37:08.956Z,92.78
2023-02-15T08:47:25.492Z,103.57
2023-02-15T08:50:06.161Z,97.97
2023-02-15T08:52:34.138Z,73.85
2023-02-15T08:55:04.858Z,79.40
2023-02-15T08:57:32.610Z,73.47
2023-02-15T09:00:01.198Z,70.68
2023-02-15T09:02:28.938Z,73.82
2023-02-15T09:05:02.326Z,71.05
2023-02-15T09:07:30.634Z,66.22
2023-02-15T09:10:01.380Z,71.70
2023-02-15T09:12:48.357Z,66.53
2023-02-15T09:18:30.965Z,65.57
2023-02-15T09:21:04.492Z,64.35
2023-02-15T09:23:32.186Z,74.25
2023-02-15T09:26:07.339Z,68.90
2023-02-15T09:28:35.706Z,67.20
2023-02-15T09:31:23.914Z,62.92
2023-02-15T09:33:55.358Z,67.32
2023-02-15T09:36:49.165Z,65.63
2023-02-15T09:39:25.074Z,73.82
2023-02-15T09:42:23.310Z,68.03
2023-02-15T09:45:19.139Z,68.70
2023-02-15T09:48:14.105Z,74.20
2023-02-15T09:50:59.736Z,64.50
2023-02-15T09:54:12.767Z,68.38
2023-02-15T09:57:02.067Z,59.42
2023-02-15T10:00:11.964Z,62.80
2023-02-15T10:02:53.009Z,69.63
2023-02-15T10:06:01.852Z,64.93
2023-02-15T10:08:34.844Z,65.47
2023-02-15T10:12:16.358Z,67.90
2023-02-15T10:15:06.273Z,63.78
2023-02-15T10:21:41.525Z,63.92
2023-02-15T10:25:03.960Z,64.57
2023-02-15T10:32:28.984Z,76.15
2023-02-15T10:35:32.710Z,70.18
2023-02-15T10:38:19.167Z,75.68
2023-02-15T10:41:01.482Z,74.15
2023-02-15T10:44:15.155Z,74.57
2023-02-15T10:57:13.112Z,78.25
2023-02-15T11:00:31.026Z,76.93
2023-02-15T11:09:20.191Z,71.28
2023-02-15T11:11:53.581Z,67.18
2023-02-15T11:14:29.462Z,64.07
2023-02-15T11:17:03.710Z,62.65
2023-02-15T11:20:53.436Z,54.92
2023-02-15T11:24:19.509Z,63.67
2023-02-15T11:26:53.090Z,51.78
2023-02-15T11:29:41.201Z,56.25
2023-02-15T11:33:02.022Z,57.20
2023-02-15T11:35:44.161Z,58.83
2023-02-15T11:38:31.034Z,50.85
2023-02-15T11:41:24.299Z,44.97
2023-02-15T11:43:58.139Z,46.92
2023-02-15T11:46:29.040Z,49.08
2023-02-15T11:48:57.360Z,53.35
2023-02-15T11:51:33.894Z,48.35
2023-02-15T11:54:09.847Z,56.53
2023-02-15T11:56:37.813Z,48.03
2023-02-15T11:59:13.892Z,48.03
2023-02-15T12:01:46.146Z,46.53
2023-02-15T12:04:41.771Z,54.83
2023-02-15T12:07:24.258Z,52.65
2023-02-15T12:10:08.116Z,43.10
2023-02-15T12:12:37.196Z,44.47
2023-02-15T12:15:11.369Z,38.78
2023-02-15T12:17:51.703Z,42.33
2023-02-15T12:20:22.081Z,44.45
2023-02-15T12:23:03.437Z,39.13
2023-02-15T12:25:47.170Z,34.85
2023-02-15T12:28:35.544Z,44.45
2023-02-15T12:31:09.705Z,37.20
2023-02-15T12:33:47.051Z,31.45
2023-02-15T12:36:46.949Z,31.05
2023-02-15T12:39:14.445Z,38.20
2023-02-15T12:41:47.823Z,33.90
2023-02-15T12:44:21.979Z,35.97
2023-02-15T12:47:29.043Z,35.22
2023-02-15T12:50:12.941Z,39.97
2023-02-15T12:52:41.249Z,39.47
2023-02-15T12:55:45.489Z,44.28
2023-02-15T13:01:06.270Z,46.25
2023-02-15T13:03:34.107Z,40.25
2023-02-15T13:06:03.639Z,33.92
2023-02-15T13:09:46.439Z,39.83
2023-02-15T13:12:22.186Z,41.33
2023-02-15T13:14:52.962Z,44.42
2023-02-15T13:17:32.262Z,36.85
2023-02-15T13:20:11.082Z,46.60
2023-02-15T13:29:40.421Z,38.53
2023-02-15T13:32:38.465Z,45.80
2023-02-15T13:35:09.882Z,45.25
2023-02-15T13:38:09.406Z,38.10
2023-02-15T13:41:07.126Z,40.42
2023-02-15T13:43:53.389Z,41.10
2023-02-15T13:46:47.624Z,42.00
2023-02-15T13:49:20.193Z,39.45
2023-02-15T13:52:12.457Z,41.03
2023-02-15T13:55:11.280Z,41.97
2023-02-15T13:57:57.253Z,38.20
2023-02-15T14:00:31.696Z,38.88
2023-02-15T14:03:18.063Z,43.00
2023-02-15T14:05:51.725Z,43.00
2023-02-15T14:09:01.778Z,35.83
2023-02-15T14:12:09.591Z,44.53
2023-02-15T14:14:46.034Z,41.08
2023-02-15T14:17:50.398Z,45.35
2023-02-15T14:20:39.620Z,44.33
2023-02-15T14:23:46.035Z,39.03
2023-02-15T14:26:38.436Z,37.30
2023-02-15T14:29:34.225Z,44.38
2023-02-15T14:32:11.099Z,51.95
2023-02-15T18:57:20.102Z,77.35
2023-02-15T18:59:57.193Z,70.97
2023-02-15T19:02:31.034Z,75.20
2023-02-15T19:05:03.944Z,73.63
2023-02-15T19:07:35.294Z,75.47
2023-02-15T19:10:06.164Z,74.00
2023-02-15T19:12:34.127Z,81.45
2023-02-15T19:15:02.504Z,74.13
2023-02-15T19:17:30.249Z,83.70
2023-02-15T19:19:57.827Z,81.55
2023-02-15T19:22:31.755Z,77.40
2023-02-15T19:25:03.085Z,75.18
2023-02-15T19:27:36.317Z,76.88
2023-02-15T19:30:13.716Z,78.10
2023-02-15T19:32:45.308Z,76.07
2023-02-15T19:35:23.262Z,76.82
2023-02-15T19:37:54.883Z,76.70
2023-02-15T19:40:35.023Z,77.03
2023-02-15T19:43:03.881Z,78.55
2023-02-15T19:45:32.944Z,80.38
2023-02-15T19:48:06.621Z,75.97
2023-02-15T19:50:38.339Z,76.27
2023-02-15T19:53:32.968Z,85.00
2023-02-15T19:56:20.803Z,81.30
2023-02-15T19:58:50.655Z,76.80
2023-02-15T20:01:35.964Z,82.32
2023-02-15T20:04:06.819Z,82.55
2023-02-15T20:06:42.470Z,81.68
2023-02-15T20:09:26.422Z,85.10
2023-02-15T20:15:37.789Z,85.95
2023-02-15T20:18:06.858Z,84.50
2023-02-15T20:20:45.886Z,80.60
2023-02-15T20:36:41.757Z,91.25
2023-02-15T20:39:20.149Z,91.85
2023-02-15T20:41:48.247Z,87.82
2023-02-15T20:44:20.930Z,93.40
2023-02-15T20:46:51.403Z,104.75
2023-02-15T20:49:19.838Z,90.07
2023-02-15T20:51:48.603Z,93.30
2023-02-15T20:54:26.995Z,85.38
2023-02-15T20:56:54.631Z,97.72
2023-02-15T20:59:32.151Z,94.38
2023-02-15T21:02:17.268Z,92.50
2023-02-15T21:04:45.363Z,92.43
2023-02-15T21:07:22.099Z,86.85
2023-02-15T21:09:49.860Z,94.18
2023-02-15T21:12:19.555Z,88.22
2023-02-15T21:14:47.821Z,89.68
2023-02-15T21:17:17.331Z,109.88
2023-02-15T21:19:45.003Z,98.13
2023-02-15T21:22:15.094Z,92.18
2023-02-15T21:24:51.898Z,97.70
2023-02-15T21:27:19.770Z,96.45
2023-02-15T21:29:47.441Z,101.13
2023-02-15T21:32:15.151Z,95.55
2023-02-15T21:34:42.804Z,91.63
2023-02-15T21:37:30.744Z,94.95
2023-02-15T21:39:58.399Z,99.40
2023-02-15T21:42:47.718Z,92.88
2023-02-15T21:45:35.417Z,96.85
2023-02-15T21:48:03.113Z,91.40
2023-02-15T21:50:49.652Z,93.75
2023-02-15T21:53:28.386Z,95.68
2023-02-15T21:55:58.353Z,96.90
2023-02-15T21:58:28.374Z,93.65
2023-02-15T22:00:58.851Z,100.13
2023-02-15T22:03:40.101Z,99.78
2023-02-15T22:06:13.158Z,97.53
2023-02-15T22:08:42.629Z,91.80
2023-02-15T22:11:16.821Z,97.70
2023-02-15T22:13:45.025Z,89.60
2023-02-15T22:16:18.484Z,93.45
2023-02-15T22:18:51.986Z,96.55
2023-02-15T22:21:21.018Z,96.45
2023-02-15T22:23:48.578Z,94.78
2023-02-15T22:26:23.936Z,94.45
2023-02-15T22:28:51.825Z,94.38
2023-02-15T22:31:21.459Z,101.40
2023-02-15T22:33:52.348Z,97.40
2023-02-15T22:36:29.583Z,94.75
2023-02-15T22:38:58.016Z,101.13
2023-02-15T22:41:31.310Z,88.10
2023-02-15T22:43:59.186Z,90.78
2023-02-15T22:46:27.053Z,87.50
2023-02-15T22:48:54.652Z,84.90
2023-02-15T22:51:24.810Z,93.70
2023-02-15T22:53:53.390Z,81.72
2023-02-15T22:56:27.521Z,87.72
2023-02-15T22:59:04.765Z,79.05
2023-02-15T23:01:35.373Z,75.18
2023-02-15T23:04:04.403Z,71.05
2023-02-15T23:06:36.586Z,82.72
2023-02-15T23:09:05.152Z,75.18
2023-02-15T23:11:32.778Z,73.00
2023-02-15T23:14:06.729Z,71.60
2023-02-15T23:16:55.896Z,68.22
2023-02-15T23:22:20.577Z,73.63
2023-02-15T23:24:52.919Z,71.53
2023-02-15T23:27:38.997Z,69.80
2023-02-15T23:30:13.201Z,73.43
2023-02-15T23:32:40.948Z,74.00
2023-02-15T23:35:16.491Z,73.57
2023-02-15T23:37:44.511Z,71.93
2023-02-15T23:40:35.476Z,72.50
2023-02-15T23:43:04.461Z,62.70
2023-02-15T23:45:37.199Z,78.07
2023-02-15T23:48:32.090Z,67.18
2023-02-15T23:51:00.249Z,68.57
2023-02-15T23:53:28.253Z,68.13
2023-02-15T23:55:58.123Z,83.28
2023-02-15T23:58:34.761Z,78.95
